Apia Wharf, Samoa

2:38 AM WST on July 14, 2014 (GMT +1300)
Faleolo International (NSFA) Elev 16 ft | 13.83 °S, 172.01 °W | Change Station

Current weather conditions updated 38 minutes ago

Scattered Clouds
Scattered Clouds
72 °F
Feels Like 72 °F
N
4
Wind Variable Wind from SSE

Today is forecast to be Cooler than yesterday. Showers possible in the afternoon.

Today
High -- | Low -- °F
--% Chance of Precip.
Yesterday
High -- | Low -- °F
Precip. -- in
6:51 AM 6:14 PM
Full, 98% visible
Pressure 29.86 in
Visibility 6.2 miles
Clouds Few 2000 ft
Scattered Clouds 15000 ft
Dew Point 68 °F
Humidity 88%
Rainfall 0.00 in
Snow Depth Not available.
UV 0 out of 12
Pollen Not available.
Air Quality Not available.
Flu Activity Not available.
METAR NSFA 131300Z 16003KT 9999 FEW020 SCT150 22/20 Q1011

More Conditions Fewer Conditions

Pressure 29.86 in
Visibility 6.2 miles
Clouds Few 2000 ft
Scattered Clouds 15000 ft
Dew Point 68 °F
Humidity 88%
Rainfall 0.00 in
Snow Depth Not available.
UV 0 out of 12
Pollen Not available.
Air Quality Not available.
Flu Activity Not available.
METAR NSFA 131300Z 16003KT 9999 FEW020 SCT150 22/20 Q1011

More Conditions Fewer Conditions

10-Day Weather Forecast

Almanac

Astronomy

Jul. 14, 2014 Rise Set
Actual Time 6:51 AM WST 6:14 PM WST
Civil Twilight 6:28 AM WST 6:37 PM WST
Nautical Twilight 6:02 AM WST 7:03 PM WST
Astronomical Twilight 5:36 AM WST 7:29 PM WST
Moon 8:02 PM WST (7/14) 7:57 AM WST (7/14)
Length of Visible Light 12h 08m
Length of Day
11h 22m
Tomorrow will be 0m 22s longer.
Full, 98% of the Moon is Illuminated
Jul 13
Full
Jul 18
Last Quarter
Jul 26
New
Aug 3
First Quarter
Aug 10
Full

Yesterday's Extremes

Country Highs Country Lows

Community

WunderPhotos

Upload Photos

1,733,189 photos uploaded!

Nearby

Snow Depth

Not available.

Earthquake Activity

City Distance Mag. Time & Date
No recent earthquake activity has been reported nearby.
Minimum magnitude displayed is 2.5.

Coastal Water Temperatures

Place Temperature
No Stations Reporting

Nearby Weather Stations

There are no personal weather stations in this area.